Time;durP1;ratioP1;P1;durP2;ratioP2;P2;SDS_P1;SDS_P2;PMS_P1;PMS_P2;Temp;Humidity;BMP_temperature;BMP_pressure;BME280_temperature;BME280_humidity;BME280_pressure;Samples;Min_cycle;Max_cycle;Signal;HPM_P1;HPM_P2
2022/04/29 00:02:16;;;;;;;;;;;19.40;92.80;;;;;;5001160;28;19926;-60
2022/04/29 00:04:43;;;;;;;;;;;19.40;92.80;;;;;;4990480;28;19930;-62
2022/04/29 00:07:11;;;;;;;;;;;19.40;92.80;;;;;;5006438;28;19929;-59
2022/04/29 00:09:38;;;;;;;;;;;19.40;92.80;;;;;;5006775;28;19930;-58
2022/04/29 00:12:07;;;;;;;;;;;19.40;92.80;;;;;;5003143;28;19937;-56
2022/04/29 00:14:34;;;;;;;;;;;19.40;92.80;;;;;;4998491;28;19933;-57
2022/04/29 00:17:01;;;;;;;;;;;19.40;92.80;;;;;;5001375;28;20404;-58
2022/04/29 00:19:28;;;;;;;;;;;19.40;92.80;;;;;;4988795;28;19929;-56
2022/04/29 00:21:56;;;;;;;;;;;19.40;92.90;;;;;;5002289;28;20397;-60
2022/04/29 00:24:23;;;;;;;;;;;19.40;92.80;;;;;;5007365;28;19990;-57
2022/04/29 00:26:50;;;;;;;;;;;19.30;92.80;;;;;;5004048;28;19930;-60
2022/04/29 00:29:17;;;;;;;;;;;19.40;92.90;;;;;;5006600;28;19959;-59
2022/04/29 00:31:45;;;;;;;;;;;19.40;92.80;;;;;;5003129;28;20008;-57
2022/04/29 00:34:13;;;;;;;;;;;19.40;92.80;;;;;;4991311;28;20321;-59
2022/04/29 00:36:40;;;;;;;;;;;19.30;92.80;;;;;;4993025;28;19953;-58
2022/04/29 00:39:07;;;;;;;;;;;19.30;92.80;;;;;;4998598;28;19933;-59
2022/04/29 00:41:37;;;;;;;;;;;19.40;92.80;;;;;;5006778;28;19929;-58
2022/04/29 00:44:06;;;;;;;;;;;19.40;92.90;;;;;;4994923;28;19953;-59
2022/04/29 00:46:37;;;;;;;;;;;19.30;92.80;;;;;;5008177;28;19929;-56
2022/04/29 00:49:06;;;;;;;;;;;19.30;92.80;;;;;;4998815;28;20009;-56
2022/04/29 00:51:34;;;;;;;;;;;19.30;92.90;;;;;;5009812;28;20318;-54
2022/04/29 00:54:03;;;;;;;;;;;19.40;92.90;;;;;;5006843;28;19930;-60
2022/04/29 00:56:31;;;;;;;;;;;19.30;92.90;;;;;;5001985;28;20401;-55
2022/04/29 00:59:01;;;;;;;;;;;19.30;92.80;;;;;;5020485;28;19940;-57
2022/04/29 01:01:31;;;;;;;;;;;19.30;92.90;;;;;;5000550;28;19936;-56
2022/04/29 01:04:00;;;;;;;;;;;19.30;92.90;;;;;;5001041;28;19930;-58
2022/04/29 01:06:27;;;;;;;;;;;19.30;92.90;;;;;;5006911;28;19926;-59
2022/04/29 01:08:54;;;;;;;;;;;19.30;92.90;;;;;;4992379;28;19933;-57
2022/04/29 01:11:23;;;;;;;;;;;19.30;92.90;;;;;;5005006;28;19933;-52
2022/04/29 01:13:51;;;;;;;;;;;19.30;92.90;;;;;;5000704;28;19930;-58
2022/04/29 01:16:18;;;;;;;;;;;19.30;92.90;;;;;;5043767;28;19936;-58
2022/04/29 01:18:47;;;;;;;;;;;19.30;92.90;;;;;;4992600;28;20286;-56
2022/04/29 01:21:14;;;;;;;;;;;19.30;92.90;;;;;;4997364;28;19946;-55
2022/04/29 01:23:43;;;;;;;;;;;19.30;92.90;;;;;;4993827;28;19965;-56
2022/04/29 01:26:15;;;;;;;;;;;19.30;92.90;;;;;;5004915;28;19929;-54
2022/04/29 01:28:48;;;;;;;;;;;19.30;92.90;;;;;;4994540;28;19937;-55
2022/04/29 01:31:15;;;;;;;;;;;19.30;92.90;;;;;;5039202;28;20293;-57
2022/04/29 01:33:47;;;;;;;;;;;19.30;92.90;;;;;;4992631;28;19929;-55
2022/04/29 01:36:16;;;;;;;;;;;19.20;92.90;;;;;;5010300;28;19933;-54
2022/04/29 01:38:43;;;;;;;;;;;19.30;92.90;;;;;;5007172;28;19936;-54
2022/04/29 01:41:12;;;;;;;;;;;19.30;92.90;;;;;;4999847;28;20432;-58
2022/04/29 01:43:42;;;;;;;;;;;19.30;92.90;;;;;;4998768;28;19933;-56
2022/04/29 01:46:12;;;;;;;;;;;19.20;92.90;;;;;;5003372;28;19926;-56
2022/04/29 01:49:05;;;;;;;;;;;19.20;92.90;;;;;;4997821;28;20377;-56
2022/04/29 01:51:42;;;;;;;;;;;19.20;92.90;;;;;;5002685;28;20312;-56
2022/04/29 01:54:11;;;;;;;;;;;19.20;92.90;;;;;;4992155;28;20405;-56
2022/04/29 01:56:38;;;;;;;;;;;19.30;92.90;;;;;;5001707;28;19929;-56
2022/04/29 01:59:09;;;;;;;;;;;19.20;92.90;;;;;;5002198;28;19926;-61
2022/04/29 02:01:50;;;;;;;;;;;19.20;92.90;;;;;;5006815;28;19929;-57
2022/04/29 02:04:17;;;;;;;;;;;19.20;92.90;;;;;;5008755;28;20264;-57
2022/04/29 02:06:44;;;;;;;;;;;19.20;92.90;;;;;;5004383;28;20405;-56
2022/04/29 02:09:12;;;;;;;;;;;19.20;92.90;;;;;;5014938;28;20389;-54
2022/04/29 02:11:39;;;;;;;;;;;19.20;92.90;;;;;;4995096;28;19926;-57
2022/04/29 02:14:27;;;;;;;;;;;19.20;92.90;;;;;;5005802;28;20336;-57
2022/04/29 02:16:57;;;;;;;;;;;19.20;92.90;;;;;;5014585;28;19926;-58
2022/04/29 02:19:25;;;;;;;;;;;19.20;92.90;;;;;;5005967;28;19925;-59
2022/04/29 02:21:52;;;;;;;;;;;19.20;92.90;;;;;;4991162;28;19949;-55
2022/04/29 02:24:19;;;;;;;;;;;19.20;93.00;;;;;;5005608;28;20405;-54
2022/04/29 02:26:46;;;;;;;;;;;19.20;92.90;;;;;;4999067;28;19930;-56
2022/04/29 02:29:14;;;;;;;;;;;19.20;92.90;;;;;;5006005;28;19930;-58
2022/04/29 02:31:42;;;;;;;;;;;19.20;92.90;;;;;;5006260;28;19926;-57
2022/04/29 02:34:09;;;;;;;;;;;19.20;93.00;;;;;;5001795;28;19933;-57
2022/04/29 02:36:37;;;;;;;;;;;19.20;93.00;;;;;;5007538;28;20327;-58
2022/04/29 02:39:05;;;;;;;;;;;19.10;92.90;;;;;;4994394;28;20341;-54
2022/04/29 02:41:32;;;;;;;;;;;19.20;93.00;;;;;;5021821;28;19936;-58
2022/04/29 02:44:00;;;;;;;;;;;19.20;93.00;;;;;;4991219;28;20381;-58
2022/04/29 02:46:27;;;;;;;;;;;19.20;93.00;;;;;;5007024;28;19940;-57
2022/04/29 02:48:54;;;;;;;;;;;19.20;93.00;;;;;;4990444;28;19926;-54
2022/04/29 02:51:21;;;;;;;;;;;19.20;93.00;;;;;;5002595;28;19933;-56
2022/04/29 02:53:49;;;;;;;;;;;19.10;92.90;;;;;;4990234;28;19930;-56
2022/04/29 02:56:17;;;;;;;;;;;19.20;93.00;;;;;;5005220;28;19937;-54
2022/04/29 02:58:57;;;;;;;;;;;19.20;93.00;;;;;;5019201;28;19941;-53
2022/04/29 03:01:24;;;;;;;;;;;19.10;92.90;;;;;;5006404;28;20282;-53
2022/04/29 03:03:51;;;;;;;;;;;19.10;93.00;;;;;;4989198;28;19930;-52
2022/04/29 03:06:19;;;;;;;;;;;19.10;93.00;;;;;;4990812;28;19930;-58
2022/04/29 03:08:46;;;;;;;;;;;19.10;93.00;;;;;;4988700;28;19933;-56
2022/04/29 03:11:13;;;;;;;;;;;19.10;93.00;;;;;;4996176;28;20336;-55
2022/04/29 03:13:40;;;;;;;;;;;19.10;93.00;;;;;;4989288;28;19937;-57
2022/04/29 03:16:11;;;;;;;;;;;19.10;93.00;;;;;;5011258;28;19929;-54
2022/04/29 03:18:39;;;;;;;;;;;19.10;93.00;;;;;;5004428;28;20178;-58
2022/04/29 03:21:06;;;;;;;;;;;19.10;93.00;;;;;;4992612;28;19957;-55
2022/04/29 03:23:33;;;;;;;;;;;19.10;93.30;;;;;;4989002;28;19930;-57
2022/04/29 03:26:01;;;;;;;;;;;19.10;93.00;;;;;;4999797;28;19929;-59
2022/04/29 03:28:28;;;;;;;;;;;19.10;93.00;;;;;;4992227;28;19929;-57
2022/04/29 03:30:58;;;;;;;;;;;19.10;93.00;;;;;;4994077;28;19948;-56
2022/04/29 03:33:31;;;;;;;;;;;19.10;93.00;;;;;;5023455;28;19934;-57
2022/04/29 03:35:59;;;;;;;;;;;19.10;93.00;;;;;;5003917;28;20309;-56
2022/04/29 03:38:35;;;;;;;;;;;19.10;93.00;;;;;;4987872;28;19929;-56
2022/04/29 03:41:04;;;;;;;;;;;19.00;93.00;;;;;;5002135;28;19930;-58
2022/04/29 03:43:32;;;;;;;;;;;19.00;93.00;;;;;;4990897;28;19930;-58
2022/04/29 03:45:59;;;;;;;;;;;19.00;93.00;;;;;;5001518;28;20405;-55
2022/04/29 03:52:06;;;;;;;;;;;19.00;93.00;;;;;;5008183;28;20343;-59
2022/04/29 03:54:33;;;;;;;;;;;19.00;93.00;;;;;;4993078;28;19930;-60
2022/04/29 03:57:00;;;;;;;;;;;19.00;93.10;;;;;;5001100;28;19929;-56
2022/04/29 03:59:29;;;;;;;;;;;19.00;93.10;;;;;;5045371;28;19936;-59
2022/04/29 04:01:57;;;;;;;;;;;19.00;93.10;;;;;;5039900;28;19926;-59
2022/04/29 04:04:25;;;;;;;;;;;19.00;93.10;;;;;;5006808;28;19925;-60
2022/04/29 04:06:58;;;;;;;;;;;19.00;93.10;;;;;;5011258;28;19929;-53
2022/04/29 04:09:32;;;;;;;;;;;19.00;93.30;;;;;;5031727;28;19936;-55
2022/04/29 04:12:04;;;;;;;;;;;19.00;93.10;;;;;;5007218;28;19930;-56
2022/04/29 04:15:02;;;;;;;;;;;19.00;93.10;;;;;;4999495;28;19930;-57
2022/04/29 04:17:36;;;;;;;;;;;19.00;93.10;;;;;;4993323;28;20409;-55
2022/04/29 04:20:04;;;;;;;;;;;19.00;93.10;;;;;;4990649;28;19936;-56
2022/04/29 04:22:43;;;;;;;;;;;19.00;93.10;;;;;;4986349;28;20033;-56
2022/04/29 04:25:14;;;;;;;;;;;19.00;93.10;;;;;;4991337;28;19940;-59
2022/04/29 04:27:42;;;;;;;;;;;19.00;93.10;;;;;;5005762;28;19926;-59
2022/04/29 04:30:09;;;;;;;;;;;19.00;93.10;;;;;;5034588;28;20329;-60
2022/04/29 04:32:38;;;;;;;;;;;19.00;93.10;;;;;;5001484;28;19929;-58
2022/04/29 04:35:06;;;;;;;;;;;19.00;93.10;;;;;;5004816;28;19936;-56
2022/04/29 04:37:34;;;;;;;;;;;18.90;93.10;;;;;;5035609;28;20341;-53
2022/04/29 04:40:04;;;;;;;;;;;19.00;93.10;;;;;;5001850;28;19937;-54
2022/04/29 04:42:50;;;;;;;;;;;18.90;93.10;;;;;;4997896;28;19929;-60
2022/04/29 04:45:28;;;;;;;;;;;18.90;93.10;;;;;;5010262;28;20432;-59
2022/04/29 04:48:15;;;;;;;;;;;18.90;93.10;;;;;;4991820;28;19926;-61
2022/04/29 04:51:08;;;;;;;;;;;19.00;93.10;;;;;;5013455;28;20480;-56
2022/04/29 04:53:39;;;;;;;;;;;18.90;93.10;;;;;;5020242;28;20594;-57
2022/04/29 04:56:06;;;;;;;;;;;18.90;93.10;;;;;;4998876;28;20294;-58
2022/04/29 04:58:34;;;;;;;;;;;19.00;93.10;;;;;;5018910;28;19937;-58
2022/04/29 05:01:02;;;;;;;;;;;18.90;93.10;;;;;;5038130;28;19930;-55
2022/04/29 05:03:39;;;;;;;;;;;18.90;93.20;;;;;;5004261;28;19937;-57
2022/04/29 05:06:25;;;;;;;;;;;18.90;93.10;;;;;;4995099;28;19941;-60
2022/04/29 05:08:52;;;;;;;;;;;18.90;93.10;;;;;;4987673;28;19936;-56
2022/04/29 05:11:19;;;;;;;;;;;18.90;93.20;;;;;;5000828;28;20025;-58
2022/04/29 05:14:13;;;;;;;;;;;18.90;93.20;;;;;;5002054;28;20405;-57
2022/04/29 05:16:40;;;;;;;;;;;18.90;93.20;;;;;;4989618;28;19929;-54
2022/04/29 05:19:26;;;;;;;;;;;18.90;93.20;;;;;;5012505;28;19948;-54
2022/04/29 05:21:53;;;;;;;;;;;18.90;93.20;;;;;;5001535;28;20398;-57
2022/04/29 05:24:24;;;;;;;;;;;18.90;93.20;;;;;;5000163;28;19929;-59
2022/04/29 05:27:12;;;;;;;;;;;18.90;93.20;;;;;;5000540;28;19925;-58
2022/04/29 05:29:58;;;;;;;;;;;18.90;93.20;;;;;;5006462;28;20749;-54
2022/04/29 05:32:43;;;;;;;;;;;18.90;93.20;;;;;;5014368;28;19929;-58
2022/04/29 05:35:29;;;;;;;;;;;18.90;93.20;;;;;;4995112;28;19937;-59
2022/04/29 05:38:16;;;;;;;;;;;18.90;93.20;;;;;;4995349;28;20331;-57
2022/04/29 05:43:30;;;;;;;;;;;18.90;93.20;;;;;;4991408;28;19926;-55
2022/04/29 05:45:57;;;;;;;;;;;18.90;93.20;;;;;;5012075;28;19926;-52
2022/04/29 05:48:25;;;;;;;;;;;18.90;93.20;;;;;;4991142;28;19925;-56
2022/04/29 05:50:52;;;;;;;;;;;18.90;93.20;;;;;;5000813;28;19933;-54
2022/04/29 05:53:19;;;;;;;;;;;18.90;93.20;;;;;;5022313;28;19936;-57
2022/04/29 05:55:56;;;;;;;;;;;18.90;93.20;;;;;;5007757;28;19937;-55
2022/04/29 05:58:23;;;;;;;;;;;18.90;93.20;;;;;;4992459;28;20389;-58
2022/04/29 06:01:13;;;;;;;;;;;18.80;93.20;;;;;;5005173;28;20669;-54
2022/04/29 06:03:41;;;;;;;;;;;18.80;93.30;;;;;;5030276;28;19937;-57
2022/04/29 06:06:08;;;;;;;;;;;18.80;93.20;;;;;;5004168;28;19937;-58
2022/04/29 06:08:38;;;;;;;;;;;18.90;93.50;;;;;;5001815;28;19952;-58
2022/04/29 06:11:06;;;;;;;;;;;18.80;93.30;;;;;;5002967;28;20020;-58
2022/04/29 06:13:33;;;;;;;;;;;18.90;93.30;;;;;;5005205;28;19937;-57
2022/04/29 06:16:24;;;;;;;;;;;18.80;93.30;;;;;;4984270;28;19930;-59
2022/04/29 06:19:26;;;;;;;;;;;18.80;93.30;;;;;;4991380;28;19953;-57
2022/04/29 06:22:22;;;;;;;;;;;18.80;93.30;;;;;;4994469;28;19933;-56
2022/04/29 06:24:50;;;;;;;;;;;18.80;93.30;;;;;;5007708;28;19936;-56
2022/04/29 06:27:36;;;;;;;;;;;18.80;93.30;;;;;;5028460;28;19933;-54
2022/04/29 06:30:04;;;;;;;;;;;18.80;93.30;;;;;;4998369;28;20508;-59
2022/04/29 06:32:54;;;;;;;;;;;18.80;93.30;;;;;;5004322;28;19952;-57
2022/04/29 06:35:25;;;;;;;;;;;18.80;93.30;;;;;;5000105;28;19936;-55
2022/04/29 06:37:53;;;;;;;;;;;18.80;93.30;;;;;;4989209;28;19936;-57
2022/04/29 06:40:48;;;;;;;;;;;18.80;93.30;;;;;;4994550;28;19951;-58
2022/04/29 06:43:16;;;;;;;;;;;18.80;93.30;;;;;;4990318;28;20136;-56
2022/04/29 06:46:02;;;;;;;;;;;18.80;93.30;;;;;;4991137;28;19937;-57
2022/04/29 06:48:49;;;;;;;;;;;18.80;93.40;;;;;;4997335;28;20393;-55
2022/04/29 06:51:36;;;;;;;;;;;18.80;93.30;;;;;;4996483;28;20390;-53
2022/04/29 06:54:09;;;;;;;;;;;18.80;93.40;;;;;;4989104;28;19926;-58
2022/04/29 06:56:38;;;;;;;;;;;18.90;93.40;;;;;;5003924;28;20428;-58
2022/04/29 06:59:05;;;;;;;;;;;18.90;93.40;;;;;;5012347;28;19926;-54
2022/04/29 07:01:35;;;;;;;;;;;18.80;93.40;;;;;;5007727;28;20315;-57
2022/04/29 07:04:02;;;;;;;;;;;18.80;93.40;;;;;;5000913;28;19932;-55
2022/04/29 07:06:31;;;;;;;;;;;18.80;93.40;;;;;;5012871;28;20334;-57
2022/04/29 07:09:00;;;;;;;;;;;18.80;93.40;;;;;;5005714;28;19930;-53
2022/04/29 07:12:06;;;;;;;;;;;18.80;93.40;;;;;;5005480;28;19926;-59
2022/04/29 07:14:47;;;;;;;;;;;18.80;93.40;;;;;;5008261;28;19934;-58
2022/04/29 07:17:16;;;;;;;;;;;18.80;93.40;;;;;;4996691;28;19925;-55
2022/04/29 07:19:46;;;;;;;;;;;18.80;93.40;;;;;;5001721;28;19933;-56
2022/04/29 07:22:27;;;;;;;;;;;18.80;93.50;;;;;;4994379;28;19926;-57
2022/04/29 07:24:56;;;;;;;;;;;18.80;93.50;;;;;;4991504;28;19937;-57
2022/04/29 07:27:24;;;;;;;;;;;18.80;93.50;;;;;;4990558;28;19930;-57
2022/04/29 07:29:51;;;;;;;;;;;18.80;93.50;;;;;;5004955;28;19956;-54
2022/04/29 07:32:31;;;;;;;;;;;18.80;93.50;;;;;;5003771;28;19926;-57
2022/04/29 07:43:52;;;;;;;;;;;18.80;93.50;;;;;;4989352;28;19925;-57
2022/04/29 07:46:21;;;;;;;;;;;18.90;93.50;;;;;;5012007;28;19926;-55
2022/04/29 07:49:14;;;;;;;;;;;18.80;93.50;;;;;;5002364;28;20013;-57
2022/04/29 07:51:42;;;;;;;;;;;18.90;93.50;;;;;;5003368;28;20390;-56
2022/04/29 07:54:10;;;;;;;;;;;18.90;93.50;;;;;;5000262;28;19929;-53
2022/04/29 07:56:39;;;;;;;;;;;18.90;93.50;;;;;;4998403;28;20420;-59
2022/04/29 07:59:09;;;;;;;;;;;18.80;93.50;;;;;;5044298;28;19929;-55
2022/04/29 08:01:43;;;;;;;;;;;18.90;93.50;;;;;;5002954;28;19937;-57
2022/04/29 08:04:13;;;;;;;;;;;18.90;93.50;;;;;;4987669;28;19932;-55
2022/04/29 08:06:40;;;;;;;;;;;18.90;93.50;;;;;;4999468;28;19941;-58
2022/04/29 08:09:28;;;;;;;;;;;18.90;93.50;;;;;;4991951;28;19929;-55
2022/04/29 08:11:56;;;;;;;;;;;18.90;93.50;;;;;;4993203;28;20004;-56
2022/04/29 08:14:31;;;;;;;;;;;18.90;93.50;;;;;;4993662;28;19934;-57
2022/04/29 08:17:19;;;;;;;;;;;18.90;93.50;;;;;;5000678;28;19930;-56
2022/04/29 08:19:49;;;;;;;;;;;18.90;93.50;;;;;;4993117;28;19930;-57
2022/04/29 08:22:39;;;;;;;;;;;18.90;93.50;;;;;;5001233;28;19941;-59
2022/04/29 08:25:07;;;;;;;;;;;18.90;93.60;;;;;;5001941;28;19926;-58
2022/04/29 08:27:34;;;;;;;;;;;19.00;93.60;;;;;;4989256;28;19930;-54
2022/04/29 08:30:03;;;;;;;;;;;18.90;93.60;;;;;;4988063;28;20302;-58
2022/04/29 08:32:37;;;;;;;;;;;18.90;93.60;;;;;;5031585;28;19926;-54
2022/04/29 08:35:09;;;;;;;;;;;18.90;93.60;;;;;;5005850;28;19933;-53
2022/04/29 08:37:37;;;;;;;;;;;19.00;93.60;;;;;;5002303;28;19937;-56
2022/04/29 08:40:05;;;;;;;;;;;19.00;93.60;;;;;;4987315;28;19930;-58
2022/04/29 08:42:36;;;;;;;;;;;19.00;93.60;;;;;;5002328;28;19929;-58
2022/04/29 08:45:15;;;;;;;;;;;19.00;93.60;;;;;;4989578;28;19941;-55
2022/04/29 08:48:01;;;;;;;;;;;19.00;93.70;;;;;;5013300;28;19929;-54
2022/04/29 08:50:35;;;;;;;;;;;19.00;93.60;;;;;;4993662;28;19929;-56
2022/04/29 08:53:02;;;;;;;;;;;19.00;93.60;;;;;;5002486;28;19974;-58
2022/04/29 09:01:04;;;;;;;;;;;19.00;93.70;;;;;;5010953;28;19929;-55
2022/04/29 09:03:32;;;;;;;;;;;19.00;93.70;;;;;;4990110;28;19929;-54
2022/04/29 09:05:59;;;;;;;;;;;19.00;93.70;;;;;;5004588;28;19949;-60
2022/04/29 09:08:27;;;;;;;;;;;19.00;93.70;;;;;;4995962;28;19929;-54
2022/04/29 09:10:54;;;;;;;;;;;19.00;93.70;;;;;;4994823;28;19937;-56
2022/04/29 09:13:30;;;;;;;;;;;19.10;93.70;;;;;;4992318;28;19977;-54
2022/04/29 09:15:58;;;;;;;;;;;19.00;93.70;;;;;;5004113;28;20081;-56
2022/04/29 09:18:31;;;;;;;;;;;19.10;93.70;;;;;;4990715;28;19941;-56
2022/04/29 09:20:58;;;;;;;;;;;19.00;94.00;;;;;;5003050;28;19949;-56
2022/04/29 09:23:29;;;;;;;;;;;19.10;93.80;;;;;;5000618;28;20312;-56
2022/04/29 09:26:21;;;;;;;;;;;19.10;93.80;;;;;;5010269;28;19936;-55
2022/04/29 09:29:17;;;;;;;;;;;19.10;93.70;;;;;;5005490;28;19940;-54
2022/04/29 09:31:53;;;;;;;;;;;19.10;93.80;;;;;;5007665;28;19940;-56
2022/04/29 09:35:10;;;;;;;;;;;19.10;93.70;;;;;;5010717;28;20407;-58
2022/04/29 09:39:26;;;;;;;;;;;19.10;93.80;;;;;;4991685;28;20404;-55
2022/04/29 09:40:36;;;;;;;;;;;19.10;93.80;;;;;;4992172;28;19926;-56
2022/04/29 09:43:04;;;;;;;;;;;19.10;93.80;;;;;;4990728;28;19930;-55
2022/04/29 09:45:32;;;;;;;;;;;19.10;93.80;;;;;;5008612;28;19926;-54
2022/04/29 09:47:59;;;;;;;;;;;19.10;93.80;;;;;;4997121;28;19952;-57
2022/04/29 09:50:49;;;;;;;;;;;19.10;93.80;;;;;;5015632;28;19925;-55
2022/04/29 09:53:17;;;;;;;;;;;19.10;93.80;;;;;;5003317;28;19929;-55
2022/04/29 09:56:04;;;;;;;;;;;19.10;93.90;;;;;;5001311;28;19925;-55
2022/04/29 09:58:31;;;;;;;;;;;19.10;93.90;;;;;;5013060;28;19943;-56
2022/04/29 10:01:04;;;;;;;;;;;19.10;93.90;;;;;;5009982;28;19934;-57
2022/04/29 10:03:35;;;;;;;;;;;19.10;93.90;;;;;;4992783;28;19940;-57
2022/04/29 10:06:05;;;;;;;;;;;19.10;93.90;;;;;;5005193;28;19933;-59
2022/04/29 10:08:33;;;;;;;;;;;19.10;93.90;;;;;;4995172;28;19937;-57
2022/04/29 10:11:01;;;;;;;;;;;19.10;93.90;;;;;;5011093;28;19925;-58
2022/04/29 10:13:29;;;;;;;;;;;19.10;93.90;;;;;;5007183;28;20345;-57
2022/04/29 10:16:12;;;;;;;;;;;19.10;93.90;;;;;;5002628;28;19948;-54
2022/04/29 10:22:03;;;;;;;;;;;19.10;93.90;;;;;;5009892;28;19930;-55
2022/04/29 10:24:31;;;;;;;;;;;19.10;93.90;;;;;;4999395;28;20393;-56
2022/04/29 10:26:58;;;;;;;;;;;19.10;93.90;;;;;;5006035;28;19940;-54
2022/04/29 10:29:25;;;;;;;;;;;19.10;93.90;;;;;;4992637;28;20427;-55
2022/04/29 10:32:06;;;;;;;;;;;19.10;93.90;;;;;;5007995;28;19960;-53
2022/04/29 10:34:34;;;;;;;;;;;19.20;93.90;;;;;;4995647;28;20393;-55
2022/04/29 10:37:12;;;;;;;;;;;19.20;93.90;;;;;;5003599;28;19933;-57
2022/04/29 10:39:39;;;;;;;;;;;19.10;93.80;;;;;;4991015;28;19941;-59
2022/04/29 10:42:10;;;;;;;;;;;19.20;93.90;;;;;;4998079;28;19933;-57
2022/04/29 10:44:58;;;;;;;;;;;19.20;93.90;;;;;;5014908;28;19990;-59
2022/04/29 10:47:31;;;;;;;;;;;19.20;93.90;;;;;;5010331;28;19940;-55
2022/04/29 10:50:29;;;;;;;;;;;19.20;93.90;;;;;;5001496;28;19936;-58
2022/04/29 10:53:15;;;;;;;;;;;19.20;93.90;;;;;;5000478;28;20309;-56
2022/04/29 10:55:46;;;;;;;;;;;19.20;93.90;;;;;;4995411;28;19933;-56
2022/04/29 10:58:23;;;;;;;;;;;19.10;93.90;;;;;;5012604;28;19929;-57
2022/04/29 11:00:56;;;;;;;;;;;19.20;93.90;;;;;;5006898;28;19933;-57
2022/04/29 11:03:37;;;;;;;;;;;19.20;94.00;;;;;;5003434;28;19941;-57
2022/04/29 11:06:08;;;;;;;;;;;19.20;93.90;;;;;;4990823;28;19930;-56
2022/04/29 11:08:37;;;;;;;;;;;19.20;94.00;;;;;;5009033;28;19929;-57
2022/04/29 11:11:04;;;;;;;;;;;19.10;93.90;;;;;;5009438;28;19929;-56
2022/04/29 11:13:57;;;;;;;;;;;19.20;94.00;;;;;;5006503;28;19953;-57
2022/04/29 11:16:53;;;;;;;;;;;19.10;94.00;;;;;;4993044;28;20394;-52
2022/04/29 11:19:45;;;;;;;;;;;19.20;94.00;;;;;;5000673;28;19933;-59
2022/04/29 11:25:05;;;;;;;;;;;19.20;94.00;;;;;;5003654;28;19937;-57
2022/04/29 11:27:42;;;;;;;;;;;19.20;94.00;;;;;;4987996;28;19933;-57
2022/04/29 11:30:21;;;;;;;;;;;19.20;94.00;;;;;;5004886;28;19925;-54
2022/04/29 11:32:57;;;;;;;;;;;19.20;94.00;;;;;;5012422;28;19934;-57
2022/04/29 11:35:24;;;;;;;;;;;19.20;94.00;;;;;;5010385;28;19940;-58
2022/04/29 11:37:53;;;;;;;;;;;19.20;94.00;;;;;;5008430;28;20317;-57
2022/04/29 11:40:20;;;;;;;;;;;19.20;94.00;;;;;;5011185;28;19936;-53
2022/04/29 11:42:50;;;;;;;;;;;19.20;94.00;;;;;;5010740;28;19929;-57
2022/04/29 11:45:21;;;;;;;;;;;19.20;94.00;;;;;;5009126;28;19929;-55
2022/04/29 11:48:01;;;;;;;;;;;19.20;94.00;;;;;;4998552;28;19926;-55
2022/04/29 11:50:35;;;;;;;;;;;19.20;94.00;;;;;;5010932;28;19933;-55
2022/04/29 11:53:03;;;;;;;;;;;19.30;94.00;;;;;;5007191;28;19933;-56
2022/04/29 11:55:30;;;;;;;;;;;19.30;94.00;;;;;;5009521;28;19929;-58
2022/04/29 11:57:57;;;;;;;;;;;19.20;94.00;;;;;;5008833;28;19929;-57
2022/04/29 12:00:25;;;;;;;;;;;19.30;94.00;;;;;;5009542;28;19929;-58
2022/04/29 12:02:53;;;;;;;;;;;19.20;94.00;;;;;;5005771;28;20404;-53
2022/04/29 12:05:21;;;;;;;;;;;19.30;94.00;;;;;;5009602;28;19932;-54
2022/04/29 12:07:51;;;;;;;;;;;19.30;94.00;;;;;;5007118;28;19936;-60
2022/04/29 12:10:41;;;;;;;;;;;19.30;94.00;;;;;;5006860;28;19933;-56
2022/04/29 12:13:09;;;;;;;;;;;19.30;94.00;;;;;;5012053;28;20332;-57
2022/04/29 12:15:39;;;;;;;;;;;19.30;94.00;;;;;;5011134;28;19940;-57
2022/04/29 12:18:11;;;;;;;;;;;19.30;94.00;;;;;;5010641;28;19941;-58
2022/04/29 12:20:58;;;;;;;;;;;19.30;94.00;;;;;;5002512;28;19937;-55
2022/04/29 12:23:26;;;;;;;;;;;19.30;94.00;;;;;;4991759;28;19948;-58
2022/04/29 12:25:55;;;;;;;;;;;19.30;94.00;;;;;;5002292;28;19937;-58
2022/04/29 12:28:22;;;;;;;;;;;19.30;94.00;;;;;;4989913;28;19929;-59
2022/04/29 12:36:50;;;;;;;;;;;19.30;93.90;;;;;;5005705;28;20414;-57
2022/04/29 12:39:24;;;;;;;;;;;19.30;94.00;;;;;;5005826;28;19929;-57
2022/04/29 12:41:58;;;;;;;;;;;19.30;94.00;;;;;;4994714;28;19936;-54
2022/04/29 12:47:33;;;;;;;;;;;19.30;94.00;;;;;;4993466;28;19941;-57
2022/04/29 12:50:19;;;;;;;;;;;19.30;94.00;;;;;;5002653;28;20373;-57
2022/04/29 12:52:49;;;;;;;;;;;19.30;94.00;;;;;;5006308;28;20360;-59
2022/04/29 12:55:16;;;;;;;;;;;19.30;94.00;;;;;;5004042;28;19936;-60
2022/04/29 12:57:45;;;;;;;;;;;19.30;94.10;;;;;;5001469;28;19929;-55
2022/04/29 13:00:32;;;;;;;;;;;19.30;94.10;;;;;;5005651;28;20140;-57
2022/04/29 13:03:01;;;;;;;;;;;19.30;94.10;;;;;;5001272;28;19937;-58
2022/04/29 13:05:29;;;;;;;;;;;19.30;94.10;;;;;;5003211;28;19930;-60
2022/04/29 13:07:57;;;;;;;;;;;19.40;94.10;;;;;;4990285;28;19930;-56
2022/04/29 13:10:25;;;;;;;;;;;19.30;94.00;;;;;;4995231;28;19932;-57
2022/04/29 13:12:53;;;;;;;;;;;19.40;94.00;;;;;;5003299;28;19930;-58
2022/04/29 13:15:27;;;;;;;;;;;19.40;94.00;;;;;;5014186;28;19929;-58
2022/04/29 13:17:58;;;;;;;;;;;19.40;93.90;;;;;;4990138;28;20326;-61
2022/04/29 13:20:26;;;;;;;;;;;19.50;93.90;;;;;;4996858;28;19933;-57
2022/04/29 13:22:53;;;;;;;;;;;19.50;93.80;;;;;;4988270;28;20464;-60
2022/04/29 13:25:22;;;;;;;;;;;19.60;93.80;;;;;;5003091;28;20408;-56
2022/04/29 13:27:49;;;;;;;;;;;19.60;93.80;;;;;;4987210;28;19929;-58
2022/04/29 13:30:16;;;;;;;;;;;19.60;93.70;;;;;;5000197;28;19936;-56
2022/04/29 13:32:44;;;;;;;;;;;19.60;93.70;;;;;;5003531;28;20233;-55
2022/04/29 13:35:11;;;;;;;;;;;19.60;93.70;;;;;;4992454;28;19930;-59
2022/04/29 13:37:39;;;;;;;;;;;19.70;93.60;;;;;;5008862;28;19929;-56
2022/04/29 13:40:08;;;;;;;;;;;19.70;93.60;;;;;;5003492;28;19937;-57
2022/04/29 13:42:36;;;;;;;;;;;19.70;93.60;;;;;;5008222;28;19930;-57
2022/04/29 13:45:06;;;;;;;;;;;19.70;93.60;;;;;;5007033;28;19929;-59
2022/04/29 13:47:33;;;;;;;;;;;19.80;93.60;;;;;;4994788;28;19925;-58
2022/04/29 13:50:01;;;;;;;;;;;19.80;93.50;;;;;;4992582;28;19926;-54
2022/04/29 13:55:15;;;;;;;;;;;19.90;93.40;;;;;;4994305;28;19952;-59
2022/04/29 13:57:43;;;;;;;;;;;19.90;93.40;;;;;;5008920;28;19925;-57
2022/04/29 14:00:10;;;;;;;;;;;19.90;93.40;;;;;;5010259;28;19941;-57
2022/04/29 14:02:41;;;;;;;;;;;19.90;93.40;;;;;;5005925;28;19930;-58
2022/04/29 14:05:09;;;;;;;;;;;19.90;93.40;;;;;;4995127;28;19929;-58
2022/04/29 14:07:40;;;;;;;;;;;19.80;93.40;;;;;;5006991;28;19940;-54
2022/04/29 14:10:08;;;;;;;;;;;19.80;93.40;;;;;;4996953;28;19930;-59
2022/04/29 14:12:35;;;;;;;;;;;19.80;93.40;;;;;;4996527;28;20005;-58
2022/04/29 14:15:03;;;;;;;;;;;19.80;93.40;;;;;;5012709;28;20377;-57
2022/04/29 14:17:30;;;;;;;;;;;19.80;93.40;;;;;;5014191;28;19937;-57
2022/04/29 14:19:57;;;;;;;;;;;19.80;93.40;;;;;;5003391;28;19926;-57
2022/04/29 14:22:24;;;;;;;;;;;19.90;93.40;;;;;;5009126;28;19933;-58
2022/04/29 14:24:52;;;;;;;;;;;19.90;93.40;;;;;;4990703;28;19930;-58
2022/04/29 14:27:20;;;;;;;;;;;20.00;93.30;;;;;;4994952;28;19936;-59
2022/04/29 14:29:48;;;;;;;;;;;20.00;93.30;;;;;;4993502;28;19930;-59
2022/04/29 14:32:21;;;;;;;;;;;20.00;93.30;;;;;;5003668;28;20034;-61
2022/04/29 14:34:49;;;;;;;;;;;20.00;93.30;;;;;;4996658;28;19956;-58
2022/04/29 14:37:16;;;;;;;;;;;20.00;93.20;;;;;;5005947;28;20365;-53
2022/04/29 14:39:44;;;;;;;;;;;20.10;93.10;;;;;;4995117;28;20583;-56
2022/04/29 14:42:11;;;;;;;;;;;20.10;93.10;;;;;;4992091;28;19930;-59
2022/04/29 14:44:39;;;;;;;;;;;20.20;93.10;;;;;;4997550;28;19937;-57
2022/04/29 14:47:09;;;;;;;;;;;20.10;93.10;;;;;;5009339;28;19925;-57
2022/04/29 14:49:36;;;;;;;;;;;20.10;93.10;;;;;;5002432;28;19932;-57
2022/04/29 14:52:03;;;;;;;;;;;20.10;93.20;;;;;;4996044;28;19960;-58
2022/04/29 14:54:30;;;;;;;;;;;20.00;93.20;;;;;;5001536;28;19952;-59
2022/04/29 14:56:58;;;;;;;;;;;20.00;93.20;;;;;;5010130;28;19936;-54
2022/04/29 14:59:25;;;;;;;;;;;20.00;93.30;;;;;;5006979;28;19933;-57
2022/04/29 15:01:53;;;;;;;;;;;20.00;93.30;;;;;;4995902;28;20417;-58
2022/04/29 15:04:20;;;;;;;;;;;20.00;93.30;;;;;;5002776;28;20397;-57
2022/04/29 15:06:48;;;;;;;;;;;20.00;93.30;;;;;;4995188;28;19929;-57
2022/04/29 15:17:54;;;;;;;;;;;20.10;93.10;;;;;;4990485;28;19929;-60
2022/04/29 15:20:21;;;;;;;;;;;20.10;93.10;;;;;;5004326;28;20009;-63
2022/04/29 15:22:48;;;;;;;;;;;20.10;93.10;;;;;;4992493;28;19934;-58
2022/04/29 15:25:17;;;;;;;;;;;20.10;93.10;;;;;;5003670;28;19925;-59
2022/04/29 15:27:45;;;;;;;;;;;20.00;93.10;;;;;;4998135;28;19936;-63
2022/04/29 15:30:12;;;;;;;;;;;20.00;93.20;;;;;;4992396;28;19926;-58
2022/04/29 15:32:40;;;;;;;;;;;20.00;93.20;;;;;;4989917;28;19940;-60